Time;durP1;ratioP1;P1;durP2;ratioP2;P2;SDS_P1;SDS_P2;PMS_P1;PMS_P2;Temp;Humidity;BMP_temperature;BMP_pressure;BME280_temperature;BME280_humidity;BME280_pressure;Samples;Min_cycle;Max_cycle;Signal;HPM_P1;HPM_P2
2021/08/12 00:00:31;;;;;;;14.93;13.83;;;23.90;97.70;;;;;;2609516;54;20414;-58
2021/08/12 00:03:01;;;;;;;14.20;13.30;;;23.90;97.70;;;;;;2609559;54;20399;-59
2021/08/12 00:05:31;;;;;;;15.37;14.33;;;23.90;97.70;;;;;;2609515;47;20514;-59
2021/08/12 00:08:00;;;;;;;14.20;13.20;;;23.90;97.70;;;;;;2610348;54;20452;-59
2021/08/12 00:10:29;;;;;;;15.90;14.87;;;23.90;97.70;;;;;;2610134;47;20526;-59
2021/08/12 00:12:58;;;;;;;15.97;14.80;;;23.90;97.70;;;;;;2610167;39;20881;-58
2021/08/12 00:15:28;;;;;;;15.23;14.23;;;23.90;97.70;;;;;;2608551;54;20422;-57
2021/08/12 00:17:57;;;;;;;16.23;15.10;;;23.90;97.70;;;;;;2609684;54;20398;-58
2021/08/12 00:20:28;;;;;;;14.97;13.97;;;23.90;97.70;;;;;;2610115;54;20514;-58
2021/08/12 00:23:00;;;;;;;15.57;14.47;;;23.90;97.70;;;;;;2609942;54;20426;-57
2021/08/12 00:25:29;;;;;;;14.83;13.87;;;23.80;97.70;;;;;;2609623;54;20469;-58
2021/08/12 00:28:00;;;;;;;15.60;14.60;;;23.80;97.70;;;;;;2609489;54;20423;-57
2021/08/12 00:30:30;;;;;;;14.93;13.93;;;23.80;97.60;;;;;;2610322;54;21023;-57
2021/08/12 00:32:59;;;;;;;14.20;13.27;;;23.80;97.60;;;;;;2609080;54;20548;-58
2021/08/12 00:35:29;;;;;;;15.00;14.00;;;23.80;97.70;;;;;;2609454;54;20405;-58
2021/08/12 00:37:59;;;;;;;14.60;13.60;;;23.80;97.60;;;;;;2609581;54;20413;-58
2021/08/12 00:40:30;;;;;;;14.17;13.20;;;23.80;97.60;;;;;;2610583;39;20998;-57
2021/08/12 00:43:02;;;;;;;16.00;14.60;;;23.80;97.60;;;;;;2610012;47;20464;-58
2021/08/12 00:45:31;;;;;;;15.03;13.93;;;23.80;98.00;;;;;;2610967;39;20676;-57
2021/08/12 00:48:00;;;;;;;15.50;14.10;;;23.80;97.70;;;;;;2609171;54;20441;-57
2021/08/12 00:50:31;;;;;;;14.97;13.90;;;23.80;97.60;;;;;;2611619;47;20409;-57
2021/08/12 00:53:01;;;;;;;15.27;14.17;;;23.80;97.60;;;;;;2608981;51;20530;-57
2021/08/12 00:55:30;;;;;;;14.00;13.00;;;23.80;97.60;;;;;;2608108;54;20816;-57
2021/08/12 00:57:59;;;;;;;14.43;13.43;;;23.80;97.60;;;;;;2609489;51;20423;-57
2021/08/12 01:00:29;;;;;;;13.77;12.90;;;23.80;97.60;;;;;;2610267;54;20391;-58
2021/08/12 01:02:58;;;;;;;15.57;14.47;;;23.80;97.60;;;;;;2610120;54;20437;-57
2021/08/12 01:05:30;;;;;;;14.20;13.40;;;23.80;97.60;;;;;;2611270;47;20406;-58
2021/08/12 01:08:11;;;;;;;15.73;14.53;;;23.80;97.60;;;;;;2610404;47;20410;-57
2021/08/12 01:10:48;;;;;;;13.83;12.83;;;23.80;97.60;;;;;;2611078;54;20534;-58
2021/08/12 01:13:28;;;;;;;14.97;13.93;;;23.80;97.60;;;;;;2610278;47;20394;-58
2021/08/12 01:16:01;;;;;;;14.33;13.43;;;23.80;97.60;;;;;;2611100;54;20398;-58
2021/08/12 01:18:35;;;;;;;14.70;13.70;;;23.80;97.60;;;;;;2610237;54;20418;-58
2021/08/12 01:21:22;;;;;;;14.10;13.20;;;23.80;97.60;;;;;;2610438;54;20419;-57
2021/08/12 01:23:55;;;;;;;15.53;14.43;;;23.80;97.60;;;;;;2609845;54;20390;-58
2021/08/12 01:26:26;;;;;;;15.60;14.50;;;23.80;97.50;;;;;;2610716;54;20441;-58
2021/08/12 01:28:56;;;;;;;14.97;13.87;;;23.80;97.50;;;;;;2609104;54;20414;-58
2021/08/12 01:31:46;;;;;;;15.70;14.80;;;23.80;97.60;;;;;;2609910;47;20436;-58
2021/08/12 01:34:26;;;;;;;14.40;13.40;;;23.80;97.60;;;;;;2611278;39;20773;-58
2021/08/12 01:36:59;;;;;;;15.70;14.53;;;23.80;97.50;;;;;;2610398;54;20402;-58
2021/08/12 01:39:31;;;;;;;15.20;14.20;;;23.80;97.50;;;;;;2610390;54;20386;-58
2021/08/12 01:42:01;;;;;;;15.07;13.97;;;23.80;97.50;;;;;;2610910;54;20506;-58
2021/08/12 01:44:32;;;;;;;14.60;13.70;;;23.80;97.50;;;;;;2610676;39;21037;-58
2021/08/12 01:47:07;;;;;;;13.90;12.97;;;23.80;97.50;;;;;;2610124;54;20390;-58
2021/08/12 01:49:38;;;;;;;14.90;13.70;;;23.80;97.50;;;;;;2610149;54;20406;-57
2021/08/12 01:52:10;;;;;;;15.50;14.30;;;23.80;97.50;;;;;;2610925;39;21169;-58
2021/08/12 01:54:42;;;;;;;14.73;13.83;;;23.80;97.50;;;;;;2609437;39;20958;-56
2021/08/12 01:57:11;;;;;;;14.63;13.53;;;23.80;97.50;;;;;;2608822;54;20848;-58
2021/08/12 01:59:42;;;;;;;15.00;14.00;;;23.80;97.50;;;;;;2607729;54;20391;-57
2021/08/12 02:02:14;;;;;;;14.10;13.30;;;23.80;97.50;;;;;;2610007;54;20391;-57
2021/08/12 02:04:44;;;;;;;15.30;14.20;;;23.80;97.50;;;;;;2610428;54;20407;-58
2021/08/12 02:07:16;;;;;;;14.93;13.83;;;23.80;97.50;;;;;;2610159;54;20429;-58
2021/08/12 02:09:45;;;;;;;15.27;14.27;;;23.80;97.50;;;;;;2610156;54;20437;-58
2021/08/12 02:12:15;;;;;;;14.90;13.90;;;23.80;97.50;;;;;;2611083;47;20422;-58
2021/08/12 02:14:44;;;;;;;14.73;13.73;;;23.80;97.50;;;;;;2610220;39;21134;-58
2021/08/12 02:17:13;;;;;;;13.70;12.73;;;23.80;97.40;;;;;;2611055;54;20395;-57
2021/08/12 02:19:43;;;;;;;14.70;13.70;;;23.80;97.40;;;;;;2611672;39;20942;-57
2021/08/12 02:22:19;;;;;;;14.40;13.33;;;23.80;97.40;;;;;;2610654;39;20944;-57
2021/08/12 02:24:57;;;;;;;13.80;12.80;;;23.80;97.40;;;;;;2610082;54;20540;-57
2021/08/12 02:27:28;;;;;;;14.37;13.27;;;23.80;97.40;;;;;;2610126;54;20493;-58
2021/08/12 02:29:58;;;;;;;15.97;14.57;;;23.80;97.40;;;;;;2609994;54;20413;-58
2021/08/12 02:32:34;;;;;;;15.10;14.10;;;23.80;97.40;;;;;;2610593;39;20733;-58
2021/08/12 02:35:06;;;;;;;15.10;14.10;;;23.80;97.40;;;;;;2609509;54;20441;-57
2021/08/12 02:37:40;;;;;;;14.17;13.20;;;23.80;97.40;;;;;;2608881;54;20407;-57
2021/08/12 02:40:11;;;;;;;13.70;12.80;;;23.80;97.40;;;;;;2610258;39;21145;-58
2021/08/12 02:42:44;;;;;;;14.23;13.10;;;23.80;97.40;;;;;;2608451;54;20425;-58
2021/08/12 02:45:15;;;;;;;13.77;12.87;;;23.80;97.40;;;;;;2610885;54;20406;-57
2021/08/12 02:47:44;;;;;;;13.73;12.83;;;23.70;97.30;;;;;;2610930;54;20402;-57
2021/08/12 02:50:16;;;;;;;14.13;13.23;;;23.70;97.30;;;;;;2609284;47;20403;-58
2021/08/12 02:52:47;;;;;;;14.13;13.13;;;23.70;97.30;;;;;;2610319;54;20386;-57
2021/08/12 02:55:18;;;;;;;14.27;13.40;;;23.70;97.30;;;;;;2611627;31;20923;-56
2021/08/12 02:57:47;;;;;;;14.57;13.53;;;23.70;97.30;;;;;;2610369;54;20399;-58
2021/08/12 03:00:18;;;;;;;14.80;13.80;;;23.70;97.30;;;;;;2610823;47;20443;-57
2021/08/12 03:02:49;;;;;;;14.70;13.70;;;23.70;97.30;;;;;;2610950;54;20399;-57
2021/08/12 03:05:20;;;;;;;14.10;13.00;;;23.70;97.30;;;;;;2610471;54;20509;-58
2021/08/12 03:07:52;;;;;;;14.40;13.50;;;23.70;97.30;;;;;;2611285;39;21080;-57
2021/08/12 03:10:23;;;;;;;15.47;14.47;;;23.70;97.30;;;;;;2612389;39;21099;-56
2021/08/12 03:12:55;;;;;;;13.97;13.17;;;23.70;97.30;;;;;;2610164;54;21496;-58
2021/08/12 03:15:26;;;;;;;14.80;13.80;;;23.70;97.30;;;;;;2610215;54;20915;-57
2021/08/12 03:17:56;;;;;;;14.70;13.70;;;23.70;97.30;;;;;;2610835;54;20399;-58
2021/08/12 03:20:29;;;;;;;15.03;13.93;;;23.70;97.30;;;;;;2610314;54;20394;-58
2021/08/12 03:23:01;;;;;;;13.50;12.70;;;23.70;97.30;;;;;;2609647;54;20417;-56
2021/08/12 03:25:31;;;;;;;15.77;14.50;;;23.70;97.30;;;;;;2610959;51;20426;-57
2021/08/12 03:28:00;;;;;;;14.20;13.30;;;23.70;97.30;;;;;;2611327;54;20371;-58
2021/08/12 03:30:30;;;;;;;14.90;13.90;;;23.70;97.30;;;;;;2610632;54;20387;-58
2021/08/12 03:32:59;;;;;;;13.40;12.50;;;23.70;97.30;;;;;;2611336;39;21053;-58
2021/08/12 03:35:29;;;;;;;14.03;13.03;;;23.70;97.30;;;;;;2606076;54;20960;-57
2021/08/12 03:37:58;;;;;;;14.80;13.90;;;23.70;97.30;;;;;;2608265;47;20447;-57
2021/08/12 03:40:29;;;;;;;14.17;13.27;;;23.70;97.30;;;;;;2608135;54;20431;-57
2021/08/12 03:42:59;;;;;;;15.10;14.00;;;23.70;97.30;;;;;;2611114;54;20403;-58
2021/08/12 03:45:28;;;;;;;14.60;13.60;;;23.70;97.30;;;;;;2610389;54;20433;-57
2021/08/12 03:47:57;;;;;;;16.03;14.80;;;23.70;97.30;;;;;;2611031;54;20391;-59
2021/08/12 03:50:26;;;;;;;16.27;15.17;;;23.70;97.20;;;;;;2608853;54;20537;-58
2021/08/12 03:52:58;;;;;;;14.00;13.07;;;23.70;97.20;;;;;;2610408;47;20417;-58
2021/08/12 03:55:28;;;;;;;14.83;13.93;;;23.70;97.20;;;;;;2608972;54;20505;-58
2021/08/12 03:57:58;;;;;;;15.20;14.20;;;23.70;97.20;;;;;;2608248;54;20955;-57
2021/08/12 04:00:27;;;;;;;15.00;14.10;;;23.70;97.20;;;;;;2609633;39;20999;-58
2021/08/12 04:02:56;;;;;;;16.17;14.97;;;23.70;97.20;;;;;;2609573;54;20445;-58
2021/08/12 04:05:25;;;;;;;14.90;14.00;;;23.70;97.20;;;;;;2609132;39;20763;-56
2021/08/12 04:07:54;;;;;;;14.83;13.80;;;23.70;97.20;;;;;;2609783;54;20398;-58
2021/08/12 04:10:24;;;;;;;16.00;14.83;;;23.70;97.20;;;;;;2608770;54;20533;-58
2021/08/12 04:12:55;;;;;;;15.93;14.83;;;23.70;97.20;;;;;;2607951;54;20406;-57
2021/08/12 04:15:24;;;;;;;15.30;14.40;;;23.70;97.20;;;;;;2608884;54;20402;-57
2021/08/12 04:17:54;;;;;;;15.90;14.70;;;23.70;97.20;;;;;;2608672;54;20501;-58
2021/08/12 04:20:23;;;;;;;15.93;14.97;;;23.70;97.20;;;;;;2605046;54;20398;-58
2021/08/12 04:22:52;;;;;;;15.70;14.57;;;23.70;97.20;;;;;;2605696;54;20406;-58
2021/08/12 04:25:21;;;;;;;16.80;15.60;;;23.70;97.20;;;;;;2607586;54;20442;-59
2021/08/12 04:27:51;;;;;;;15.60;14.60;;;23.70;97.20;;;;;;2606032;54;20403;-58
2021/08/12 04:30:24;;;;;;;16.43;15.37;;;23.70;97.20;;;;;;2607068;54;20510;-58
2021/08/12 04:32:53;;;;;;;16.77;15.67;;;23.70;97.20;;;;;;2607893;54;20425;-57
2021/08/12 04:35:22;;;;;;;15.43;14.53;;;23.70;97.20;;;;;;2604734;54;20410;-58
2021/08/12 04:37:52;;;;;;;16.70;15.37;;;23.70;97.20;;;;;;2604614;54;20402;-58
2021/08/12 04:40:23;;;;;;;16.37;15.17;;;23.70;97.20;;;;;;2607701;51;20576;-58
2021/08/12 04:42:54;;;;;;;16.57;15.17;;;23.70;97.20;;;;;;2605927;54;20440;-57
2021/08/12 04:45:27;;;;;;;16.60;15.50;;;23.70;97.20;;;;;;2605954;54;21250;-57
2021/08/12 04:48:02;;;;;;;16.17;15.27;;;23.70;97.20;;;;;;2604248;54;20394;-58
2021/08/12 04:50:34;;;;;;;16.43;15.43;;;23.70;97.20;;;;;;2603169;47;20488;-58
2021/08/12 04:53:03;;;;;;;16.63;15.70;;;23.70;97.20;;;;;;2603368;54;20445;-58
2021/08/12 04:55:33;;;;;;;17.07;16.07;;;23.70;97.20;;;;;;2602851;54;20580;-59
2021/08/12 04:58:04;;;;;;;16.30;15.30;;;23.70;97.20;;;;;;2600878;51;20414;-58
2021/08/12 05:00:39;;;;;;;16.30;15.00;;;23.60;97.10;;;;;;2601270;54;20387;-57
2021/08/12 05:03:09;;;;;;;16.27;15.07;;;23.60;97.10;;;;;;2601024;54;20395;-57
2021/08/12 05:05:39;;;;;;;16.40;15.40;;;23.70;97.20;;;;;;2601748;54;20395;-57
2021/08/12 05:08:10;;;;;;;16.73;15.33;;;23.70;97.20;;;;;;2600974;54;20669;-58
2021/08/12 05:10:39;;;;;;;15.77;14.83;;;23.70;97.10;;;;;;2599285;54;20916;-57
2021/08/12 05:13:08;;;;;;;16.30;15.30;;;23.70;97.10;;;;;;2600920;54;21376;-57
2021/08/12 05:15:39;;;;;;;16.37;15.37;;;23.70;97.10;;;;;;2599811;54;20400;-58
2021/08/12 05:18:08;;;;;;;16.27;15.17;;;23.70;97.10;;;;;;2601352;31;20830;-58
2021/08/12 05:20:37;;;;;;;16.30;15.30;;;23.70;97.10;;;;;;2598501;54;20398;-56
2021/08/12 05:23:07;;;;;;;15.83;14.93;;;23.70;97.10;;;;;;2597776;54;20413;-58
2021/08/12 05:25:36;;;;;;;15.90;14.90;;;23.70;97.10;;;;;;2598311;39;20804;-58
2021/08/12 05:28:06;;;;;;;15.40;14.40;;;23.70;97.10;;;;;;2598297;39;21135;-58
2021/08/12 05:30:35;;;;;;;16.17;15.17;;;23.70;97.10;;;;;;2595569;39;20792;-58
2021/08/12 05:33:06;;;;;;;16.30;15.47;;;23.70;97.00;;;;;;2598424;39;20786;-58
2021/08/12 05:35:36;;;;;;;16.23;15.33;;;23.70;97.00;;;;;;2597034;54;21334;-57
2021/08/12 05:38:07;;;;;;;16.47;15.40;;;23.70;97.00;;;;;;2595144;54;20422;-58
2021/08/12 05:40:36;;;;;;;16.50;15.27;;;23.70;97.00;;;;;;2591456;54;20417;-58
2021/08/12 05:43:06;;;;;;;15.83;14.90;;;23.70;97.10;;;;;;2596183;54;20433;-57
2021/08/12 05:45:35;;;;;;;16.30;15.20;;;23.70;97.10;;;;;;2593278;54;20426;-58
2021/08/12 05:48:14;;;;;;;15.93;14.90;;;23.60;96.80;;;;;;2594030;54;20403;-57
2021/08/12 05:50:48;;;;;;;16.40;15.20;;;23.20;97.00;;;;;;2595192;39;21145;-57
2021/08/12 05:53:26;;;;;;;16.17;15.17;;;22.80;97.50;;;;;;2593694;39;21268;-58
2021/08/12 05:56:01;;;;;;;16.80;15.80;;;22.50;98.10;;;;;;2593861;54;20986;-59
2021/08/12 05:58:37;;;;;;;15.87;14.67;;;22.20;98.60;;;;;;2594675;54;20402;-58
2021/08/12 06:01:13;;;;;;;15.53;14.60;;;22.00;99.80;;;;;;2589610;54;20390;-58
2021/08/12 06:03:47;;;;;;;16.80;15.70;;;21.80;99.60;;;;;;2587743;54;20533;-58
2021/08/12 06:06:23;;;;;;;16.27;15.20;;;21.70;99.90;;;;;;2587117;54;20423;-57
2021/08/12 06:09:00;;;;;;;17.67;16.50;;;21.60;99.90;;;;;;2587387;31;20809;-57
2021/08/12 06:11:36;;;;;;;17.30;15.57;;;21.60;99.90;;;;;;2582833;54;20403;-58
2021/08/12 06:14:07;;;;;;;17.03;15.73;;;21.50;99.90;;;;;;2582850;54;20568;-58
2021/08/12 06:16:41;;;;;;;15.67;14.53;;;21.50;99.90;;;;;;2585301;54;20418;-59
2021/08/12 06:19:12;;;;;;;16.17;15.23;;;21.50;99.90;;;;;;2582147;54;20414;-58
2021/08/12 06:21:42;;;;;;;17.40;16.10;;;21.50;99.90;;;;;;2583436;54;20521;-58
2021/08/12 06:24:14;;;;;;;17.57;16.00;;;21.50;99.90;;;;;;2581047;54;20970;-57
2021/08/12 06:26:44;;;;;;;16.20;15.10;;;21.60;99.90;;;;;;2579983;39;20722;-57
2021/08/12 06:29:15;;;;;;;16.23;15.13;;;21.60;99.90;;;;;;2580367;39;20787;-59
2021/08/12 06:31:45;;;;;;;16.43;15.33;;;21.70;99.90;;;;;;2582125;54;20407;-58
2021/08/12 06:34:16;;;;;;;15.53;14.47;;;21.70;99.90;;;;;;2582308;54;20431;-57
2021/08/12 06:36:45;;;;;;;15.87;14.77;;;21.70;99.90;;;;;;2579677;39;20785;-58
2021/08/12 06:39:15;;;;;;;16.27;15.07;;;21.80;99.90;;;;;;2582989;54;20570;-58
2021/08/12 06:41:44;;;;;;;15.23;14.33;;;21.80;99.90;;;;;;2584069;47;20436;-58
2021/08/12 06:44:13;;;;;;;15.07;13.97;;;21.80;99.90;;;;;;2579642;54;20541;-59
2021/08/12 06:46:43;;;;;;;16.17;15.07;;;21.80;99.90;;;;;;2581392;47;20414;-58
2021/08/12 06:49:16;;;;;;;15.73;14.40;;;21.90;99.90;;;;;;2583406;39;21126;-57
2021/08/12 06:51:48;;;;;;;14.70;13.80;;;22.00;99.90;;;;;;2580184;54;20433;-59
2021/08/12 06:54:18;;;;;;;16.07;14.97;;;22.10;99.90;;;;;;2582255;54;20423;-59
2021/08/12 06:56:48;;;;;;;16.00;14.90;;;22.30;99.90;;;;;;2580262;54;20427;-58
2021/08/12 06:59:18;;;;;;;16.37;15.30;;;22.40;99.90;;;;;;2579806;54;20411;-59
2021/08/12 07:01:47;;;;;;;15.77;14.47;;;22.50;99.90;;;;;;2582108;54;20448;-58
2021/08/12 07:04:18;;;;;;;17.27;15.87;;;22.60;99.90;;;;;;2582262;54;20470;-58
2021/08/12 07:06:50;;;;;;;15.63;14.50;;;22.60;99.90;;;;;;2584089;54;20395;-58
2021/08/12 07:09:20;;;;;;;16.87;15.57;;;22.70;99.90;;;;;;2587792;39;20829;-58
2021/08/12 07:11:52;;;;;;;16.27;15.13;;;22.80;99.90;;;;;;2576018;54;20441;-58
2021/08/12 07:14:21;;;;;;;15.50;14.27;;;22.90;99.90;;;;;;2580849;54;20391;-58
2021/08/12 07:16:51;;;;;;;14.63;13.73;;;23.00;99.90;;;;;;2584084;54;20415;-58
2021/08/12 07:19:22;;;;;;;15.23;14.13;;;23.10;99.90;;;;;;2583239;54;20421;-58
2021/08/12 07:21:51;;;;;;;16.23;14.87;;;23.20;99.90;;;;;;2581681;47;20403;-58
2021/08/12 07:24:24;;;;;;;15.07;13.87;;;23.20;99.90;;;;;;2579373;54;20424;-58
2021/08/12 07:26:54;;;;;;;15.40;14.20;;;23.30;99.90;;;;;;2581750;54;20426;-59
2021/08/12 07:29:23;;;;;;;15.83;14.87;;;23.30;99.90;;;;;;2581546;54;20395;-58
2021/08/12 07:31:52;;;;;;;15.93;14.83;;;23.40;99.90;;;;;;2579544;54;20403;-57
2021/08/12 07:34:25;;;;;;;15.00;14.10;;;23.40;99.90;;;;;;2575141;51;20441;-56
2021/08/12 07:36:56;;;;;;;16.27;15.27;;;23.50;99.90;;;;;;2575358;54;20569;-58
2021/08/12 07:39:26;;;;;;;16.00;14.80;;;23.50;99.90;;;;;;2573999;54;21576;-58
2021/08/12 07:41:55;;;;;;;16.20;15.00;;;23.50;99.80;;;;;;2578920;54;20429;-57
2021/08/12 07:44:24;;;;;;;16.00;14.90;;;23.60;99.80;;;;;;2579768;54;20403;-58
2021/08/12 07:46:54;;;;;;;14.87;13.77;;;23.60;99.70;;;;;;2582005;54;20529;-58
2021/08/12 07:49:24;;;;;;;15.33;14.33;;;23.60;99.60;;;;;;2582236;47;20422;-59
2021/08/12 07:51:53;;;;;;;17.00;15.83;;;23.60;99.60;;;;;;2574095;39;20811;-58
2021/08/12 07:54:26;;;;;;;16.03;14.73;;;23.60;99.50;;;;;;2577985;54;20461;-58
2021/08/12 07:56:58;;;;;;;15.67;14.50;;;23.70;99.50;;;;;;2582173;54;21276;-57
2021/08/12 07:59:27;;;;;;;15.33;14.33;;;23.70;99.60;;;;;;2580136;54;20417;-58
2021/08/12 08:01:56;;;;;;;15.13;14.10;;;23.70;99.50;;;;;;2575274;54;20449;-57
2021/08/12 08:04:28;;;;;;;14.07;13.17;;;23.70;99.50;;;;;;2575525;39;20611;-58
2021/08/12 08:06:59;;;;;;;15.10;14.07;;;23.70;99.50;;;;;;2573433;54;20966;-58
2021/08/12 08:09:30;;;;;;;13.40;12.60;;;23.80;99.60;;;;;;2571286;54;20919;-57
2021/08/12 08:12:00;;;;;;;13.77;13.07;;;23.80;99.60;;;;;;2571903;54;20441;-58
2021/08/12 08:14:29;;;;;;;14.90;14.00;;;23.80;99.60;;;;;;2573409;47;20391;-58
2021/08/12 08:16:58;;;;;;;14.03;13.33;;;23.80;99.60;;;;;;2579884;54;20415;-58
2021/08/12 08:19:29;;;;;;;14.93;13.83;;;23.80;99.60;;;;;;2577980;50;20426;-58
2021/08/12 08:21:58;;;;;;;15.67;14.63;;;23.80;99.60;;;;;;2582040;54;20910;-58
2021/08/12 08:24:27;;;;;;;16.73;15.43;;;23.90;99.60;;;;;;2579700;54;20565;-58
2021/08/12 08:26:57;;;;;;;15.13;14.23;;;23.90;99.60;;;;;;2579765;54;20445;-58
2021/08/12 08:29:26;;;;;;;15.50;14.50;;;23.90;99.70;;;;;;2575494;54;20458;-58
2021/08/12 08:31:55;;;;;;;15.17;14.07;;;23.90;99.70;;;;;;2570940;39;20804;-58
2021/08/12 08:34:24;;;;;;;15.13;13.97;;;23.90;99.90;;;;;;2579066;54;20383;-58
2021/08/12 08:36:55;;;;;;;14.63;13.93;;;23.90;99.90;;;;;;2578645;54;20858;-57
2021/08/12 08:39:24;;;;;;;14.50;13.70;;;23.90;99.90;;;;;;2573353;54;20461;-57
2021/08/12 08:41:55;;;;;;;14.97;13.70;;;23.90;99.90;;;;;;2578098;54;20418;-58
2021/08/12 08:44:27;;;;;;;15.70;14.50;;;23.90;99.90;;;;;;2577862;31;20825;-58
2021/08/12 08:46:56;;;;;;;13.60;12.80;;;23.90;99.90;;;;;;2579663;54;20410;-59
2021/08/12 08:49:26;;;;;;;15.07;14.17;;;23.90;99.90;;;;;;2573608;54;21406;-58
2021/08/12 08:51:57;;;;;;;15.20;14.10;;;23.90;99.90;;;;;;2581232;54;20427;-58
2021/08/12 08:54:27;;;;;;;15.00;14.00;;;23.90;99.90;;;;;;2575537;39;20959;-59
2021/08/12 08:56:57;;;;;;;14.60;13.80;;;23.90;99.90;;;;;;2576031;54;21292;-57
2021/08/12 08:59:27;;;;;;;15.67;14.13;;;23.90;99.90;;;;;;2577945;54;20415;-58
2021/08/12 09:01:56;;;;;;;16.10;14.77;;;24.00;99.90;;;;;;2578112;47;20414;-58
2021/08/12 09:04:26;;;;;;;14.87;13.97;;;23.90;99.90;;;;;;2572750;54;20867;-57
2021/08/12 09:06:56;;;;;;;14.47;13.70;;;24.00;99.90;;;;;;2575491;54;20453;-57
2021/08/12 09:09:26;;;;;;;14.70;13.90;;;24.00;99.90;;;;;;2578292;54;20435;-55
2021/08/12 09:12:02;;;;;;;15.00;14.00;;;24.00;99.90;;;;;;2576379;54;21015;-56
2021/08/12 09:14:36;;;;;;;15.10;14.20;;;24.00;99.90;;;;;;2571277;54;20538;-57
2021/08/12 09:17:24;;;;;;;15.70;14.80;;;24.00;99.90;;;;;;2573348;39;20545;-57
2021/08/12 09:20:07;;;;;;;14.13;13.33;;;24.00;99.90;;;;;;2568949;54;20814;-58
2021/08/12 09:22:55;;;;;;;14.70;13.67;;;24.00;99.90;;;;;;2571337;54;20914;-57
2021/08/12 09:25:36;;;;;;;15.30;14.07;;;24.00;99.90;;;;;;2576493;39;21006;-57
2021/08/12 09:28:17;;;;;;;15.60;14.30;;;24.00;99.90;;;;;;2573505;54;20675;-57
2021/08/12 09:30:48;;;;;;;13.73;12.93;;;24.00;99.90;;;;;;2571190;54;20418;-58
2021/08/12 09:33:19;;;;;;;14.97;14.17;;;24.00;99.90;;;;;;2571732;54;20415;-57
2021/08/12 09:35:48;;;;;;;15.13;14.27;;;24.00;99.90;;;;;;2572192;54;20403;-55
2021/08/12 09:38:19;;;;;;;14.70;13.50;;;24.00;99.90;;;;;;2573462;54;20871;-57
2021/08/12 09:40:55;;;;;;;15.17;14.07;;;24.00;99.90;;;;;;2577520;54;20407;-58
2021/08/12 09:43:28;;;;;;;15.20;14.00;;;24.00;99.90;;;;;;2577694;54;20406;-58
2021/08/12 09:45:57;;;;;;;16.47;15.47;;;24.00;99.90;;;;;;2572857;54;20371;-58
2021/08/12 09:48:27;;;;;;;15.23;14.40;;;24.00;99.90;;;;;;2568275;54;20747;-58
2021/08/12 09:51:06;;;;;;;14.60;13.60;;;24.00;99.90;;;;;;2571433;39;20733;-57
2021/08/12 09:53:37;;;;;;;14.90;14.00;;;24.00;99.90;;;;;;2575636;54;20395;-58
2021/08/12 09:56:10;;;;;;;15.83;14.83;;;24.00;99.90;;;;;;2570348;54;20440;-58
2021/08/12 09:58:40;;;;;;;14.83;13.83;;;24.10;99.90;;;;;;2569349;47;21090;-58
2021/08/12 10:01:19;;;;;;;15.63;14.73;;;24.10;99.90;;;;;;2572997;54;20395;-58
2021/08/12 10:03:51;;;;;;;15.47;14.47;;;24.10;99.90;;;;;;2574444;39;20602;-57
2021/08/12 10:06:24;;;;;;;14.37;13.60;;;24.10;99.90;;;;;;2569648;54;20446;-56
2021/08/12 10:08:55;;;;;;;15.00;14.20;;;24.10;99.90;;;;;;2573604;54;21166;-57
2021/08/12 10:11:27;;;;;;;14.60;13.80;;;24.10;99.90;;;;;;2569167;39;20722;-55
2021/08/12 10:13:58;;;;;;;15.50;14.70;;;24.10;99.90;;;;;;2569181;54;20407;-58
2021/08/12 10:16:28;;;;;;;16.20;15.30;;;24.00;99.90;;;;;;2578102;39;20811;-58
2021/08/12 10:19:00;;;;;;;16.57;15.57;;;24.10;99.90;;;;;;2576145;39;20769;-57
2021/08/12 10:21:47;;;;;;;15.00;14.10;;;24.10;99.90;;;;;;2578423;39;20947;-57
2021/08/12 10:24:18;;;;;;;15.00;14.10;;;24.10;99.90;;;;;;2578187;54;20577;-54
2021/08/12 10:29:34;;;;;;;15.50;14.60;;;24.10;99.90;;;;;;2579917;54;20438;-58
2021/08/12 10:32:05;;;;;;;15.90;14.63;;;24.10;99.90;;;;;;2578398;54;20375;-57
2021/08/12 10:34:35;;;;;;;15.40;14.47;;;24.10;99.90;;;;;;2579610;54;20417;-58
2021/08/12 10:37:04;;;;;;;15.80;14.90;;;24.10;99.90;;;;;;2578055;39;21180;-58
2021/08/12 10:39:35;;;;;;;15.87;14.97;;;24.10;99.90;;;;;;2575301;39;20663;-58
2021/08/12 10:42:06;;;;;;;16.13;15.23;;;24.20;99.90;;;;;;2577522;54;21101;-58
2021/08/12 10:44:36;;;;;;;16.73;15.47;;;24.10;99.90;;;;;;2572321;54;20387;-57
2021/08/12 10:47:06;;;;;;;16.00;15.10;;;24.20;99.90;;;;;;2572428;54;20842;-58
2021/08/12 10:49:37;;;;;;;16.60;15.40;;;24.20;99.90;;;;;;2572812;54;20407;-56
2021/08/12 10:52:08;;;;;;;15.73;14.67;;;24.20;99.90;;;;;;2576722;39;20668;-58
2021/08/12 10:54:40;;;;;;;15.50;14.37;;;24.20;99.90;;;;;;2573095;54;21068;-57
2021/08/12 10:57:21;;;;;;;16.43;15.43;;;24.20;99.90;;;;;;2576818;54;21111;-57
2021/08/12 10:59:52;;;;;;;16.73;15.53;;;24.20;99.90;;;;;;2576910;39;20602;-57
2021/08/12 11:02:44;;;;;;;15.63;14.67;;;24.20;99.90;;;;;;2574079;54;20414;-58
2021/08/12 11:18:57;;;;;;;16.70;15.60;;;24.20;99.90;;;;;;2583658;54;20508;-58
2021/08/12 11:25:03;;;;;;;16.30;15.30;;;24.20;99.90;;;;;;2582341;54;21511;-59
2021/08/12 11:30:47;;;;;;;16.03;14.73;;;24.20;99.90;;;;;;2579615;54;20398;-59
2021/08/12 11:33:35;;;;;;;16.83;15.70;;;24.20;99.90;;;;;;2583451;54;21589;-59
2021/08/12 11:58:32;;;;;;;;;;;;;;;;;;;;;
2021/08/12 12:01:24;;;;;;;17.77;16.67;;;24.20;99.90;;;;;;2584766;54;20414;-59
2021/08/12 12:09:58;;;;;;;19.20;17.70;;;24.20;99.90;;;;;;2585518;54;20421;-59
2021/08/12 12:12:46;;;;;;;;;;;;;;;;;;;;;
2021/08/12 12:24:17;;;;;;;18.63;17.43;;;24.20;99.90;;;;;;2585555;54;20440;-58
2021/08/12 12:35:32;;;;;;;;;;;;;;;;;;;;;
2021/08/12 12:40:58;;;;;;;20.13;18.60;;;24.20;99.90;;;;;;2589918;54;20457;-59
2021/08/12 12:47:11;;;;;;;;;;;;;;;;;;;;;
2021/08/12 12:50:24;;;;;;;19.77;18.47;;;24.20;99.90;;;;;;2584261;54;20460;-59
2021/08/12 12:56:31;;;;;;;19.57;18.17;;;24.20;99.90;;;;;;2583096;39;20873;-59
2021/08/12 13:02:42;;;;;;;19.07;17.77;;;24.20;99.90;;;;;;2575347;54;21291;-59
2021/08/12 13:05:15;;;;;;;18.70;17.30;;;24.20;99.90;;;;;;2582938;39;21158;-59
2021/08/12 13:07:50;;;;;;;18.37;16.97;;;24.20;99.90;;;;;;2584769;54;20414;-59
2021/08/12 13:49:20;;;;;;;18.90;17.63;;;24.20;99.60;;;;;;2589512;54;20441;-59
2021/08/12 13:52:04;;;;;;;18.00;16.90;;;24.20;99.50;;;;;;2587027;54;20403;-59
2021/08/12 13:54:34;;;;;;;19.30;17.90;;;24.20;99.50;;;;;;2583627;54;20434;-57
2021/08/12 13:57:04;;;;;;;19.60;18.30;;;24.20;99.40;;;;;;2583848;54;20525;-59
2021/08/12 13:59:35;;;;;;;17.83;16.83;;;24.20;99.70;;;;;;2582376;39;21172;-59
2021/08/12 14:02:11;;;;;;;17.77;16.50;;;24.20;99.30;;;;;;2581688;54;21065;-59
2021/08/12 14:04:40;;;;;;;19.20;17.90;;;24.20;99.60;;;;;;2583923;39;20826;-59
2021/08/12 14:07:10;;;;;;;19.23;17.93;;;24.20;99.20;;;;;;2589577;54;20422;-59
2021/08/12 14:09:39;;;;;;;17.87;16.67;;;24.20;99.20;;;;;;2586341;54;20456;-59
2021/08/12 14:12:09;;;;;;;19.83;18.53;;;24.20;99.10;;;;;;2584641;47;20530;-59
2021/08/12 14:14:38;;;;;;;19.67;18.30;;;24.20;99.10;;;;;;2585178;50;20383;-59
2021/08/12 14:17:08;;;;;;;18.47;17.27;;;24.20;99.10;;;;;;2583771;54;20379;-59
2021/08/12 14:19:37;;;;;;;17.63;16.43;;;24.20;99.00;;;;;;2588537;54;20411;-59
2021/08/12 14:22:06;;;;;;;18.77;17.37;;;24.20;99.00;;;;;;2586749;54;20445;-59
2021/08/12 14:24:37;;;;;;;18.13;16.93;;;24.20;99.00;;;;;;2587069;54;20423;-59
2021/08/12 14:27:07;;;;;;;18.23;16.97;;;24.20;98.90;;;;;;2586510;39;21018;-59
2021/08/12 14:29:37;;;;;;;18.83;17.73;;;24.20;98.90;;;;;;2590700;54;20554;-59
2021/08/12 14:32:08;;;;;;;19.10;17.50;;;24.20;98.80;;;;;;2589191;54;20763;-59
2021/08/12 14:34:39;;;;;;;19.37;17.97;;;24.20;98.80;;;;;;2587838;39;20759;-58
2021/08/12 14:37:08;;;;;;;17.20;16.07;;;24.20;98.80;;;;;;2588952;54;20447;-59
2021/08/12 14:39:39;;;;;;;18.00;16.90;;;24.20;98.80;;;;;;2588205;54;20442;-59
2021/08/12 14:42:08;;;;;;;16.93;15.93;;;24.20;98.70;;;;;;2579920;54;20427;-59
2021/08/12 14:44:38;;;;;;;17.60;16.30;;;24.20;98.70;;;;;;2586152;54;20425;-59
2021/08/12 14:47:08;;;;;;;18.00;16.80;;;24.20;98.70;;;;;;2591382;54;20473;-58
2021/08/12 14:49:37;;;;;;;17.37;16.17;;;24.20;99.00;;;;;;2589380;54;20411;-60
2021/08/12 14:52:08;;;;;;;18.73;17.43;;;24.30;98.80;;;;;;2594495;54;20432;-59
2021/08/12 14:54:39;;;;;;;17.40;16.40;;;24.20;98.70;;;;;;2587733;54;20481;-59